Time;durP1;ratioP1;P1;durP2;ratioP2;P2;SDS_P1;SDS_P2;PMS_P1;PMS_P2;Temp;Humidity;BMP_temperature;BMP_pressure;BME280_temperature;BME280_humidity;BME280_pressure;Samples;Min_cycle;Max_cycle;Signal;HPM_P1;HPM_P2
2022/09/22 00:02:03;;;;;;;4.78;2.28;;;;;;;16.82;100.00;99831.84;10376327;28;20037;-68
2022/09/22 00:07:04;;;;;;;9.00;2.88;;;;;;;16.82;100.00;99779.00;10391523;28;20042;-68
2022/09/22 00:12:05;;;;;;;7.15;2.58;;;;;;;16.62;100.00;99722.84;10376223;28;20034;-68
2022/09/22 00:17:06;;;;;;;8.02;2.60;;;;;;;16.77;100.00;99727.88;10391756;28;20046;-69
2022/09/22 00:22:07;;;;;;;6.72;2.97;;;;;;;16.72;100.00;99686.66;10376143;28;20045;-69
2022/09/22 00:27:08;;;;;;;5.15;2.28;;;;;;;16.78;100.00;99658.97;10375637;28;20042;-69
2022/09/22 00:32:09;;;;;;;5.53;2.25;;;;;;;16.54;100.00;99621.28;10391790;28;20120;-69
2022/09/22 00:37:11;;;;;;;7.32;3.60;;;;;;;16.72;100.00;99652.63;10375373;28;20046;-69
2022/09/22 00:42:11;;;;;;;7.57;3.10;;;;;;;16.72;100.00;99666.03;10375114;28;20042;-69
2022/09/22 00:47:33;;;;;;;5.68;2.92;;;;;;;16.77;100.00;99701.06;10374926;28;20501;-69
2022/09/22 00:52:40;;;;;;;6.95;2.80;;;;;;;16.41;100.00;99683.88;10390170;28;20092;-70
2022/09/22 00:57:42;;;;;;;4.95;3.15;;;;;;;16.76;100.00;99746.91;10375029;28;20065;-68
2022/09/22 01:02:52;;;;;;;13.32;3.15;;;;;;;16.40;100.00;99674.22;10374833;28;20084;-69
2022/09/22 01:07:54;;;;;;;6.55;3.00;;;;;;;16.51;100.00;99667.31;10374021;28;20037;-69
2022/09/22 01:13:20;;;;;;;4.05;2.65;;;;;;;16.85;100.00;99706.13;10374268;28;20038;-69
2022/09/22 01:18:48;;;;;;;4.30;2.50;;;;;;;16.48;100.00;99661.53;10369571;28;20509;-68
2022/09/22 01:24:29;;;;;;;4.63;2.55;;;;;;;16.80;100.00;99703.28;10373499;28;20049;-69
2022/09/22 01:29:41;;;;;;;7.38;2.80;;;;;;;16.86;100.00;99744.50;10380278;28;20045;-70
2022/09/22 01:34:55;;;;;;;5.68;3.03;;;;;;;16.82;100.00;99759.41;10403826;28;20042;-69
2022/09/22 01:40:04;;;;;;;6.38;3.25;;;;;;;16.82;100.00;99754.84;10404342;28;20042;-69
2022/09/22 01:45:09;;;;;;;6.93;3.65;;;;;;;16.82;100.00;99728.03;10394652;28;20049;-68
2022/09/22 01:50:20;;;;;;;8.00;3.50;;;;;;;16.70;100.00;99686.88;10372372;28;20132;-71
2022/09/22 01:55:30;;;;;;;7.22;3.67;;;;;;;16.66;100.00;99694.56;10389814;28;20045;-70
2022/09/22 02:00:33;;;;;;;4.95;3.50;;;;;;;16.78;100.00;99742.09;10413498;28;20576;-70
2022/09/22 02:05:55;;;;;;;4.78;3.20;;;;;;;16.84;100.00;99736.69;10413404;28;20053;-70
2022/09/22 02:11:06;;;;;;;8.35;3.70;;;;;;;16.72;100.00;99697.38;10395101;28;20064;-69
2022/09/22 02:16:08;;;;;;;6.07;3.60;;;;;;;16.79;100.00;99688.25;10371764;28;20052;-69
2022/09/22 02:21:09;;;;;;;7.40;3.60;;;;;;;16.25;100.00;99622.03;10372178;28;20387;-69
2022/09/22 02:26:14;;;;;;;10.52;4.10;;;;;;;16.69;100.00;99704.00;10371565;28;20052;-69
2022/09/22 02:31:15;;;;;;;12.75;4.35;;;;;;;16.36;100.00;99608.69;10372546;28;20584;-70
2022/09/22 02:36:48;;;;;;;14.05;4.28;;;;;;;16.34;100.00;99594.69;10379733;28;20042;-71
2022/09/22 02:42:01;;;;;;;9.38;4.00;;;;;;;16.29;100.00;99634.75;10365399;28;20042;-70
2022/09/22 02:47:10;;;;;;;8.47;4.20;;;;;;;16.84;100.00;99725.97;10364660;28;20402;-72
2022/09/22 02:52:12;;;;;;;7.00;3.72;;;;;;;16.50;100.00;99656.78;10365053;28;20513;-73
2022/09/22 02:57:13;;;;;;;17.95;4.75;;;;;;;16.85;100.00;99703.44;10365926;28;20112;-70
2022/09/22 03:02:14;;;;;;;24.02;5.50;;;;;;;16.92;100.00;99735.56;10386635;28;20569;-69
2022/09/22 03:07:15;;;;;;;11.90;4.60;;;;;;;16.37;100.00;99657.75;10381587;28;20053;-70
2022/09/22 03:12:15;;;;;;;7.22;4.43;;;;;;;16.88;100.00;99753.16;10371241;28;20042;-70
2022/09/22 03:17:17;;;;;;;9.15;3.83;;;;;;;16.91;100.00;99786.75;10386517;28;20042;-70
2022/09/22 03:22:18;;;;;;;7.82;4.35;;;;;;;17.13;100.00;99836.25;10372651;28;20571;-70
2022/09/22 03:27:19;;;;;;;8.32;4.53;;;;;;;17.10;100.00;99844.75;10379000;28;20173;-71
2022/09/22 03:32:21;;;;;;;33.45;6.32;;;;;;;17.21;100.00;99873.53;10375515;28;20048;-72
2022/09/22 03:37:22;;;;;;;13.70;5.38;;;;;;;17.21;100.00;99876.22;10378126;28;20045;-72
2022/09/22 03:42:22;;;;;;;8.27;4.68;;;;;;;16.92;100.00;99810.66;10416077;28;20045;-69
2022/09/22 03:47:23;;;;;;;7.50;4.38;;;;;;;17.46;100.00;99907.56;10411846;28;20041;-70
2022/09/22 03:52:24;;;;;;;9.85;4.55;;;;;;;17.47;100.00;99901.97;10378722;28;20523;-70
2022/09/22 03:57:25;;;;;;;13.05;4.80;;;;;;;17.42;100.00;99891.06;10377360;28;20089;-73
2022/09/22 04:02:26;;;;;;;8.40;5.22;;;;;;;17.07;100.00;99821.03;10376889;28;20041;-70
2022/09/22 04:07:27;;;;;;;7.00;4.38;;;;;;;17.38;100.00;99833.50;10376626;28;20497;-70
2022/09/22 04:12:28;;;;;;;9.07;4.63;;;;;;;17.41;100.00;99794.63;10376037;28;20120;-71
2022/09/22 04:17:29;;;;;;;14.35;4.97;;;;;;;17.41;100.00;99735.56;10376231;28;20049;-71
2022/09/22 04:22:29;;;;;;;30.33;6.88;;;;;;;17.18;100.00;99688.78;10376145;28;20034;-69
2022/09/22 04:27:30;;;;;;;9.40;4.85;;;;;;;17.29;100.00;99709.50;10376431;28;20052;-68
2022/09/22 04:32:31;;;;;;;8.43;5.25;;;;;;;17.30;100.00;99737.97;10374335;28;20087;-71
2022/09/22 04:37:32;;;;;;;7.32;5.57;;;;;;;16.83;100.00;99651.88;10375086;28;20049;-73
2022/09/22 04:42:33;;;;;;;7.55;4.90;;;;;;;17.30;100.00;99721.06;10367999;28;20136;-71
2022/09/22 04:47:33;;;;;;;6.55;4.63;;;;;;;17.28;100.00;99745.44;10374143;28;20065;-69
2022/09/22 04:52:34;;;;;;;7.40;4.70;;;;;;;17.29;100.00;99763.19;10374491;28;20041;-69
2022/09/22 04:57:35;;;;;;;9.40;4.75;;;;;;;17.30;100.00;99767.50;10374231;28;20112;-70
2022/09/22 05:02:36;;;;;;;6.15;4.13;;;;;;;17.25;100.00;99763.84;10374604;28;20441;-69
2022/09/22 05:07:41;;;;;;;7.45;4.38;;;;;;;17.38;100.00;99821.91;10373848;28;20099;-69
2022/09/22 05:12:43;;;;;;;9.55;4.88;;;;;;;17.40;100.00;99852.06;10374806;28;20556;-69
2022/09/22 05:17:49;;;;;;;10.88;4.90;;;;;;;17.20;100.00;99777.97;10373467;28;20125;-69
2022/09/22 05:22:52;;;;;;;7.63;5.05;;;;;;;17.25;100.00;99777.28;10374045;28;20034;-69
2022/09/22 05:27:55;;;;;;;7.53;4.57;;;;;;;17.73;100.00;99849.78;10373617;28;20069;-69
2022/09/22 05:32:56;;;;;;;6.32;3.95;;;;;;;17.87;100.00;99855.00;10373648;28;20276;-69
2022/09/22 05:37:56;;;;;;;6.78;4.25;;;;;;;17.97;100.00;99829.22;10373284;28;20041;-69
2022/09/22 05:42:57;;;;;;;9.15;3.80;;;;;;;17.99;100.00;99794.88;10373117;28;20042;-69
2022/09/22 05:47:58;;;;;;;6.15;3.58;;;;;;;18.33;100.00;99832.00;10372178;28;20083;-70
2022/09/22 05:53:07;;;;;;;4.80;3.22;;;;;;;18.40;100.00;99812.03;10373151;28;20038;-69
2022/09/22 05:58:11;;;;;;;7.18;3.25;;;;;;;18.34;100.00;99823.72;10372803;28;20073;-69
2022/09/22 06:03:12;;;;;;;10.65;3.47;;;;;;;18.44;100.00;99796.25;10372102;28;20045;-69
2022/09/22 06:08:13;;;;;;;8.55;3.33;;;;;;;18.65;100.00;99808.28;10372427;28;20049;-70
2022/09/22 06:13:14;;;;;;;7.93;3.40;;;;;;;18.76;100.00;99812.09;10372680;28;20048;-71
2022/09/22 06:18:18;;;;;;;11.98;3.53;;;;;;;18.85;100.00;99792.66;10371905;28;20046;-70
2022/09/22 06:23:19;;;;;;;12.45;3.67;;;;;;;18.66;100.00;99743.47;10371679;28;20096;-70
2022/09/22 06:28:20;;;;;;;3.72;2.63;;;;;;;19.00;100.00;99808.31;10371545;28;20076;-69
2022/09/22 06:33:22;;;;;;;5.25;3.10;;;;;;;18.93;100.00;99792.28;10372178;28;20121;-69
2022/09/22 06:38:23;;;;;;;5.50;2.78;;;;;;;18.61;100.00;99745.25;10372203;28;20433;-68
2022/09/22 06:43:24;;;;;;;4.45;2.13;;;;;;;18.81;100.00;99775.31;10371858;28;20046;-69
2022/09/22 06:48:24;;;;;;;5.38;2.80;;;;;;;18.86;100.00;99802.34;10371641;28;20397;-68
2022/09/22 06:53:25;;;;;;;3.63;2.40;;;;;;;18.81;100.00;99796.03;10371173;28;20042;-69
2022/09/22 06:58:27;;;;;;;7.50;2.50;;;;;;;18.68;100.00;99787.13;10377124;28;20065;-68
2022/09/22 07:03:28;;;;;;;12.48;3.22;;;;;;;18.90;100.00;99808.88;10378745;28;20099;-68
2022/09/22 07:08:32;;;;;;;5.05;2.80;;;;;;;18.98;100.00;99793.44;10379532;28;20050;-69
2022/09/22 07:13:36;;;;;;;8.40;2.57;;;;;;;18.77;100.00;99724.91;10378930;28;20038;-68
2022/09/22 07:18:43;;;;;;;6.30;2.65;;;;;;;19.28;100.00;99769.84;10378635;28;20506;-68
2022/09/22 07:23:44;;;;;;;5.22;2.40;;;;;;;19.27;100.00;99724.31;10378518;28;20409;-69
2022/09/22 07:28:49;;;;;;;3.78;2.70;;;;;;;19.70;100.00;99793.84;10378391;28;20132;-70
2022/09/22 07:33:52;;;;;;;5.43;2.67;;;;;;;19.55;100.00;99778.16;10378562;28;20038;-68
2022/09/22 07:38:56;;;;;;;12.82;3.63;;;;;;;19.31;100.00;99722.75;10377185;28;20510;-69
2022/09/22 07:45:11;;;;;;;6.97;3.10;;;;;;;19.60;100.00;99772.06;10377653;28;20042;-68
2022/09/22 07:49:22;;;;;;;5.05;2.55;;;;;;;19.78;100.00;99726.06;10376528;28;20518;-68
2022/09/22 07:54:24;;;;;;;12.23;2.75;;;;;;;20.55;99.20;99772.34;10376633;28;20049;-68
2022/09/22 07:59:26;;;;;;;6.57;2.85;;;;;;;20.89;97.03;99717.22;10377663;28;20110;-68
2022/09/22 08:04:30;;;;;;;6.43;3.25;;;;;;;21.43;93.72;99733.53;10376238;28;20505;-67
2022/09/22 08:09:32;;;;;;;5.22;2.83;;;;;;;21.80;92.41;99734.69;10375243;28;20046;-68
2022/09/22 08:14:33;;;;;;;5.82;2.88;;;;;;;22.27;89.04;99734.00;10376476;28;20041;-69
2022/09/22 08:19:34;;;;;;;4.95;2.80;;;;;;;22.28;87.97;99757.28;10376108;28;20132;-68
2022/09/22 08:24:35;;;;;;;5.28;2.50;;;;;;;22.25;85.44;99739.66;10376494;28;20113;-67
2022/09/22 08:29:35;;;;;;;8.52;3.15;;;;;;;22.36;85.22;99732.44;10375138;28;20065;-68
2022/09/22 08:34:36;;;;;;;3.90;2.60;;;;;;;22.03;85.64;99734.34;10375123;28;20037;-68
2022/09/22 08:39:37;;;;;;;6.10;2.70;;;;;;;21.99;84.65;99724.31;10374761;28;20042;-68
2022/09/22 08:44:56;;;;;;;12.05;3.00;;;;;;;21.86;82.91;99726.34;10374984;28;20053;-67
2022/09/22 08:55:22;;;;;;;7.47;2.55;;;;;;;21.80;81.90;99676.00;10375000;28;20096;-70
2022/09/22 09:00:28;;;;;;;13.52;2.50;;;;;;;22.43;81.58;99727.63;10374528;28;20046;-69
2022/09/22 09:06:03;;;;;;;14.30;3.50;;;;;;;22.79;80.42;99715.13;10374496;28;20133;-68
2022/09/22 09:11:29;;;;;;;6.20;2.53;;;;;;;23.05;78.60;99700.88;10374694;28;20502;-69
2022/09/22 09:16:47;;;;;;;10.13;2.60;;;;;;;23.22;77.38;99680.59;10373560;28;20401;-68
2022/09/22 09:21:55;;;;;;;3.38;2.33;;;;;;;22.78;77.30;99609.75;10374066;28;20077;-69
2022/09/22 09:27:01;;;;;;;4.55;2.97;;;;;;;22.94;78.16;99683.72;10373774;28;20050;-69
2022/09/22 09:32:13;;;;;;;5.10;2.60;;;;;;;22.66;78.73;99712.88;10373770;28;20083;-68
2022/09/22 09:37:16;;;;;;;4.18;2.78;;;;;;;22.31;79.26;99673.69;10373991;28;20103;-67
2022/09/22 09:42:26;;;;;;;5.88;3.03;;;;;;;22.54;78.95;99669.75;10372489;28;20046;-67
2022/09/22 09:47:39;;;;;;;5.18;2.67;;;;;;;23.04;76.20;99653.22;10372299;28;20189;-67
2022/09/22 09:52:41;;;;;;;11.77;3.25;;;;;;;22.80;77.09;99629.28;10373042;28;20046;-67
2022/09/22 10:03:46;;;;;;;6.13;3.25;;;;;;;22.86;77.76;99711.34;10327497;28;20189;-68
2022/09/22 10:08:50;;;;;;;4.43;2.63;;;;;;;22.39;79.36;99715.69;10366040;28;20096;-69
2022/09/22 10:13:55;;;;;;;5.22;2.95;;;;;;;22.00;80.27;99626.69;10372374;28;20088;-68
2022/09/22 10:19:04;;;;;;;8.45;3.03;;;;;;;22.22;78.61;99637.38;10371732;28;20112;-67
2022/09/22 10:24:30;;;;;;;5.65;3.05;;;;;;;22.14;79.14;99642.44;10371836;28;20037;-68
2022/09/22 10:29:31;;;;;;;7.63;3.08;;;;;;;22.25;79.51;99718.03;10372695;28;20045;-68
2022/09/22 10:34:40;;;;;;;5.55;3.08;;;;;;;22.09;79.88;99681.09;10379218;28;20084;-68
2022/09/22 10:39:59;;;;;;;8.15;3.10;;;;;;;21.94;79.12;99600.69;10380222;28;20093;-67
2022/09/22 10:45:12;;;;;;;4.40;3.10;;;;;;;22.70;77.61;99722.06;10395240;28;20041;-67
2022/09/22 10:50:34;;;;;;;;;;;;;;;22.99;77.25;99708.97;10379504;28;20129;-67
2022/09/22 10:55:50;;;;;;;8.50;3.50;;;;;;;22.63;78.54;99656.53;10378979;28;19932;-67
2022/09/22 11:01:11;;;;;;;6.80;2.75;;;;;;;22.95;76.88;99717.91;10379547;28;20057;-68
2022/09/22 11:12:24;;;;;;;6.18;3.63;;;;;;;22.67;78.86;99722.59;10379158;28;20527;-67
2022/09/22 11:17:39;;;;;;;14.48;4.07;;;;;;;22.64;78.24;99731.25;10367996;28;20050;-68
2022/09/22 11:23:00;;;;;;;5.35;3.70;;;;;;;22.36;79.82;99723.53;10377894;28;20537;-69
2022/09/22 11:28:04;;;;;;;9.57;3.80;;;;;;;22.28;79.81;99730.22;10377788;28;20418;-68
2022/09/22 11:33:20;;;;;;;6.20;3.80;;;;;;;22.23;81.82;99731.03;10377938;28;20049;-68
2022/09/22 11:39:08;;;;;;;6.85;3.47;;;;;;;22.24;81.58;99712.88;10377737;28;20107;-68
2022/09/22 11:44:33;;;;;;;8.85;3.70;;;;;;;22.30;80.51;99698.31;10369418;28;20061;-68
2022/09/22 11:49:55;;;;;;;8.32;3.35;;;;;;;22.39;80.40;99693.22;10392170;28;20046;-68
2022/09/22 11:55:39;;;;;;;6.35;3.22;;;;;;;22.32;79.15;99678.03;10376778;28;20522;-67
2022/09/22 12:01:05;;;;;;;5.38;3.55;;;;;;;22.40;79.02;99689.44;10375792;28;20111;-68
2022/09/22 12:06:11;;;;;;;3.92;3.20;;;;;;;22.27;79.12;99669.88;10376383;28;20332;-67
2022/09/22 12:11:16;;;;;;;5.35;3.72;;;;;;;22.41;79.62;99675.66;10376738;28;20072;-69
2022/09/22 12:16:40;;;;;;;7.20;3.20;;;;;;;22.59;79.92;99701.47;10376488;28;20037;-74
2022/09/22 12:21:59;;;;;;;10.65;3.90;;;;;;;22.53;80.41;99716.06;10390205;28;20042;-71
2022/09/22 12:27:09;;;;;;;4.43;3.30;;;;;;;22.43;80.66;99702.44;10376039;28;20046;-71
2022/09/22 12:32:29;;;;;;;4.82;3.15;;;;;;;22.41;80.53;99674.84;10386740;28;20408;-71
2022/09/22 12:37:35;;;;;;;12.48;3.80;;;;;;;22.49;79.72;99682.44;10418926;28;20068;-70
2022/09/22 12:42:38;;;;;;;6.30;3.20;;;;;;;22.46;79.62;99670.25;10414530;28;20052;-71
2022/09/22 12:47:41;;;;;;;6.85;3.13;;;;;;;22.57;78.85;99665.72;10399101;28;20046;-69
2022/09/22 12:52:41;;;;;;;4.47;3.28;;;;;;;22.77;78.51;99675.84;10375439;28;20041;-69
2022/09/22 12:57:49;;;;;;;6.53;3.20;;;;;;;22.58;77.10;99636.75;10414086;28;20045;-72
2022/09/22 13:02:50;;;;;;;4.72;2.92;;;;;;;22.72;77.37;99660.38;10416509;28;20502;-70
2022/09/22 13:07:52;;;;;;;7.30;2.88;;;;;;;22.56;77.26;99654.09;10380725;28;20053;-70
2022/09/22 13:13:05;;;;;;;13.73;3.60;;;;;;;22.71;78.37;99685.03;10393175;28;20069;-69
2022/09/22 13:18:31;;;;;;;7.10;3.30;;;;;;;22.68;77.86;99683.66;10405193;28;20128;-69
2022/09/22 13:23:32;;;;;;;7.60;3.67;;;;;;;22.48;78.49;99673.53;10400273;28;20052;-71
2022/09/22 13:28:33;;;;;;;5.25;3.50;;;;;;;22.43;79.03;99672.69;10414544;28;20037;-70
2022/09/22 13:33:35;;;;;;;7.63;3.63;;;;;;;22.27;79.74;99647.44;10413413;28;20136;-72
2022/09/22 13:38:42;;;;;;;5.47;3.25;;;;;;;21.55;81.04;99536.09;10390399;28;20050;-69
2022/09/22 13:43:47;;;;;;;10.43;3.88;;;;;;;22.25;81.14;99665.81;10375942;28;20125;-70
2022/09/22 13:48:50;;;;;;;6.85;4.22;;;;;;;21.85;81.74;99643.63;10372489;28;20532;-70
2022/09/22 13:53:55;;;;;;;6.20;4.10;;;;;;;21.84;83.25;99671.75;10394574;28;20041;-70
2022/09/22 13:58:58;;;;;;;6.57;4.00;;;;;;;21.65;84.74;99665.06;10413626;28;20524;-70
2022/09/22 14:04:00;;;;;;;8.18;4.30;;;;;;;21.37;85.03;99639.16;10412453;28;20075;-70
2022/09/22 14:09:02;;;;;;;6.05;4.38;;;;;;;21.28;86.87;99629.88;10413273;28;20049;-70
2022/09/22 14:14:05;;;;;;;8.60;4.55;;;;;;;21.23;87.31;99617.13;10396045;28;20046;-70
2022/09/22 14:19:18;;;;;;;7.90;4.50;;;;;;;21.37;87.40;99661.59;10372295;28;20053;-71
2022/09/22 14:24:19;;;;;;;6.33;4.10;;;;;;;20.58;88.08;99555.97;10388294;28;20179;-70
2022/09/22 14:29:31;;;;;;;6.70;4.45;;;;;;;21.23;89.82;99687.34;10388508;28;20034;-70
2022/09/22 14:34:33;;;;;;;7.70;4.53;;;;;;;21.14;89.00;99683.47;10390703;28;20128;-71
2022/09/22 14:39:34;;;;;;;5.97;4.30;;;;;;;21.15;89.52;99699.44;10395806;28;20402;-70
2022/09/22 14:44:43;;;;;;;6.30;3.85;;;;;;;21.08;92.47;99700.69;10390399;28;20033;-70
2022/09/22 14:49:47;;;;;;;9.63;5.28;;;;;;;21.10;91.64;99704.78;10374512;28;20132;-70
2022/09/22 14:54:48;;;;;;;8.40;6.70;;;;;;;21.05;91.33;99712.81;10381149;28;20498;-70
2022/09/22 15:05:27;;;;;;;8.05;5.78;;;;;;;20.95;94.14;99710.81;10408160;28;20041;-70
2022/09/22 15:10:31;;;;;;;8.15;5.68;;;;;;;20.63;93.84;99675.56;10420290;28;20037;-70
2022/09/22 15:15:32;;;;;;;;;;;;;;;21.02;93.42;99713.31;10385801;28;20053;-70
2022/09/22 15:20:51;;;;;;;7.68;4.88;;;;;;;20.82;96.34;99710.34;10401847;28;19929;-71
2022/09/22 15:25:55;;;;;;;8.40;4.40;;;;;;;20.48;94.45;99670.78;10408181;28;20441;-71
2022/09/22 15:30:57;;;;;;;7.65;4.68;;;;;;;20.45;94.70;99665.06;10406843;28;20064;-71
2022/09/22 15:36:14;;;;;;;7.95;5.03;;;;;;;20.41;97.68;99664.75;10409107;28;20049;-70
2022/09/22 15:41:16;;;;;;;6.10;4.70;;;;;;;20.75;95.74;99724.03;10378363;28;20038;-70
2022/09/22 15:46:28;;;;;;;10.75;4.90;;;;;;;20.77;98.60;99732.72;10376938;28;20069;-70
2022/09/22 15:51:30;;;;;;;10.15;5.68;;;;;;;20.37;97.01;99669.03;10377427;28;20185;-70
2022/09/22 15:56:31;;;;;;;8.68;5.55;;;;;;;20.67;97.61;99713.69;10403879;28;20065;-71
2022/09/22 16:01:33;;;;;;;7.00;5.03;;;;;;;20.64;98.27;99714.19;10416268;28;20046;-70
2022/09/22 16:06:34;;;;;;;8.05;5.15;;;;;;;20.60;98.54;99713.06;10415132;28;20048;-71
2022/09/22 16:11:35;;;;;;;7.18;5.10;;;;;;;20.55;99.10;99704.88;10399515;28;20448;-70
2022/09/22 16:16:36;;;;;;;5.88;4.88;;;;;;;20.35;99.29;99691.91;10416756;28;20048;-72
2022/09/22 16:21:40;;;;;;;7.13;5.45;;;;;;;20.37;100.00;99695.16;10415752;28;20041;-70
2022/09/22 16:26:41;;;;;;;7.72;5.40;;;;;;;20.45;99.93;99719.03;10416282;28;20066;-69
2022/09/22 16:31:41;;;;;;;10.05;5.40;;;;;;;20.45;100.00;99717.13;10413094;28;20054;-70
2022/09/22 16:36:43;;;;;;;6.30;5.05;;;;;;;20.43;100.00;99718.44;10415987;28;20069;-69
2022/09/22 16:41:45;;;;;;;7.20;4.95;;;;;;;20.09;100.00;99671.84;10415794;28;20099;-71
2022/09/22 16:46:46;;;;;;;7.30;5.13;;;;;;;20.40;100.00;99724.31;10416279;28;20041;-71
2022/09/22 16:51:48;;;;;;;7.70;5.50;;;;;;;20.22;100.00;99714.63;10394778;28;20580;-71
2022/09/22 16:56:50;;;;;;;19.15;5.82;;;;;;;20.26;100.00;99713.91;10382979;28;20071;-71
2022/09/22 17:01:51;;;;;;;10.05;5.47;;;;;;;19.92;100.00;99659.16;10377338;28;20045;-72
2022/09/22 17:06:53;;;;;;;7.72;6.13;;;;;;;20.29;100.00;99742.25;10374590;28;20117;-72
2022/09/22 17:11:56;;;;;;;9.77;5.97;;;;;;;20.24;100.00;99745.69;10411649;28;20490;-71
2022/09/22 17:17:04;;;;;;;9.53;6.13;;;;;;;20.21;100.00;99748.06;10410033;28;20041;-71
2022/09/22 17:22:06;;;;;;;10.05;5.60;;;;;;;20.04;100.00;99729.19;10411735;28;20029;-71
2022/09/22 17:27:07;;;;;;;9.27;5.70;;;;;;;20.09;100.00;99747.31;10411880;28;20037;-71
2022/09/22 17:32:08;;;;;;;8.73;6.38;;;;;;;19.61;100.00;99696.38;10412630;28;20041;-72
2022/09/22 17:37:12;;;;;;;8.60;5.97;;;;;;;19.51;100.00;99685.44;10411037;28;20044;-71
2022/09/22 17:42:14;;;;;;;7.53;5.70;;;;;;;19.82;100.00;99758.75;10407430;28;20037;-71
2022/09/22 17:57:40;;;;;;;9.10;6.15;;;;;;;19.49;100.00;99732.53;10371879;28;20058;-68
2022/09/22 18:02:41;;;;;;;9.25;6.38;;;;;;;19.67;100.00;99750.41;10392610;28;20094;-68
2022/09/22 18:07:42;;;;;;;7.05;6.22;;;;;;;19.61;100.00;99750.25;10409210;28;20166;-68
2022/09/22 18:12:43;;;;;;;8.27;5.93;;;;;;;19.73;100.00;99768.28;10412713;28;20049;-68
2022/09/22 18:17:44;;;;;;;8.77;6.25;;;;;;;19.68;100.00;99746.63;10411762;28;20045;-68
2022/09/22 18:22:46;;;;;;;13.73;6.78;;;;;;;19.58;100.00;99737.28;10409943;28;20049;-68
2022/09/22 18:27:47;;;;;;;9.90;6.45;;;;;;;19.60;100.00;99745.94;10409415;28;20493;-68
2022/09/22 18:32:48;;;;;;;10.50;6.53;;;;;;;19.20;100.00;99683.22;10409814;28;20128;-68
2022/09/22 18:37:49;;;;;;;9.43;6.80;;;;;;;19.47;100.00;99748.09;10392878;28;20053;-68
2022/09/22 18:42:50;;;;;;;12.80;7.13;;;;;;;19.30;100.00;99726.53;10398953;28;20147;-68
2022/09/22 18:47:51;;;;;;;12.93;6.60;;;;;;;19.39;100.00;99749.31;10371597;28;20069;-69
2022/09/22 18:52:55;;;;;;;10.25;6.85;;;;;;;19.06;100.00;99697.00;10374186;28;20116;-69
2022/09/22 18:57:56;;;;;;;8.23;6.97;;;;;;;19.47;100.00;99772.34;10382191;28;20056;-69
2022/09/22 19:02:57;;;;;;;14.20;7.78;;;;;;;19.47;100.00;99757.00;10414442;28;20121;-67
2022/09/22 19:07:59;;;;;;;9.63;7.32;;;;;;;19.09;100.00;99677.66;10381686;28;20044;-68
2022/09/22 19:13:00;;;;;;;14.73;7.70;;;;;;;19.10;100.00;99684.69;10416617;28;20087;-67
2022/09/22 19:18:01;;;;;;;12.52;9.02;;;;;;;19.42;100.00;99735.38;10419659;28;20128;-70
2022/09/22 19:23:05;;;;;;;11.07;7.65;;;;;;;19.39;100.00;99728.59;10419324;28;20479;-67
2022/09/22 19:28:05;;;;;;;15.60;7.13;;;;;;;19.35;100.00;99750.84;10419141;28;20037;-67
2022/09/22 19:33:06;;;;;;;9.48;6.35;;;;;;;19.32;100.00;99732.47;10419325;28;20275;-69
2022/09/22 19:38:07;;;;;;;7.70;6.35;;;;;;;19.13;100.00;99691.47;10391049;28;20050;-67
2022/09/22 19:43:08;;;;;;;9.85;7.35;;;;;;;18.90;100.00;99651.97;10377818;28;20038;-67
2022/09/22 19:48:08;;;;;;;14.30;6.97;;;;;;;19.21;100.00;99709.13;10378054;28;20429;-69
2022/09/22 19:53:09;;;;;;;11.63;6.88;;;;;;;18.69;100.00;99632.69;10376928;28;20061;-68
2022/09/22 19:58:10;;;;;;;11.48;6.78;;;;;;;19.09;100.00;99712.66;10377938;28;20060;-68
2022/09/22 20:03:11;;;;;;;8.57;6.60;;;;;;;19.16;100.00;99732.19;10376161;28;20042;-67
2022/09/22 20:08:14;;;;;;;8.77;5.53;;;;;;;19.01;100.00;99707.66;10376273;28;20715;-68
2022/09/22 20:18:35;;;;;;;7.22;5.95;;;;;;;18.74;100.00;99682.34;10375949;28;20042;-68
2022/09/22 20:23:35;;;;;;;7.50;5.95;;;;;;;18.97;100.00;99719.16;10376055;28;20041;-69
2022/09/22 20:28:38;;;;;;;7.07;5.85;;;;;;;19.01;100.00;99707.66;10390734;28;20038;-67
2022/09/22 20:33:40;;;;;;;9.43;5.15;;;;;;;18.65;100.00;99647.69;10375351;28;20077;-67
2022/09/22 20:38:41;;;;;;;9.98;5.45;;;;;;;18.86;100.00;99683.13;10376024;28;20498;-67
2022/09/22 20:43:42;;;;;;;6.30;4.53;;;;;;;18.79;100.00;99672.50;10374934;28;20092;-68
2022/09/22 20:48:44;;;;;;;5.85;4.53;;;;;;;18.77;100.00;99679.16;10375586;28;20037;-67
2022/09/22 20:53:45;;;;;;;5.57;4.85;;;;;;;18.83;100.00;99686.28;10375159;28;20100;-67
2022/09/22 20:58:46;;;;;;;8.23;4.72;;;;;;;18.75;100.00;99684.78;10389347;28;20403;-67
2022/09/22 21:03:47;;;;;;;6.18;4.35;;;;;;;18.73;100.00;99686.91;10385581;28;20045;-68
2022/09/22 21:14:08;;;;;;;7.60;5.30;;;;;;;18.56;100.00;99662.56;10374506;28;20126;-67
2022/09/22 21:19:11;;;;;;;5.97;5.22;;;;;;;18.59;100.00;99675.53;10373600;28;20065;-67
2022/09/22 21:24:13;;;;;;;6.75;4.47;;;;;;;18.56;100.00;99667.94;10373519;28;20041;-67
2022/09/22 21:29:14;;;;;;;8.82;4.90;;;;;;;18.41;100.00;99633.47;10373949;28;20042;-67
2022/09/22 21:34:18;;;;;;;6.63;4.68;;;;;;;18.37;100.00;99635.03;10373179;28;20045;-67
2022/09/22 21:39:20;;;;;;;6.15;4.97;;;;;;;18.39;100.00;99630.19;10373845;28;20144;-67
2022/09/22 21:44:21;;;;;;;7.45;4.82;;;;;;;18.25;100.00;99616.22;10374014;28;20045;-67
2022/09/22 21:49:23;;;;;;;7.47;4.70;;;;;;;18.14;100.00;99608.97;10373092;28;20045;-67
2022/09/22 21:54:23;;;;;;;11.07;5.45;;;;;;;17.86;100.00;99585.53;10372848;28;20050;-68
2022/09/22 21:59:24;;;;;;;6.97;4.65;;;;;;;17.52;100.00;99542.25;10373416;28;20065;-68
2022/09/22 22:04:25;;;;;;;8.07;4.65;;;;;;;17.97;100.00;99626.84;10372262;28;20132;-68
2022/09/22 22:09:26;;;;;;;5.38;4.50;;;;;;;17.86;100.00;99616.91;10372252;28;20046;-67
2022/09/22 22:14:33;;;;;;;6.78;5.40;;;;;;;17.83;100.00;99595.88;10382788;28;20517;-67
2022/09/22 22:19:34;;;;;;;5.70;4.88;;;;;;;17.72;100.00;99590.25;10372434;28;20045;-68
2022/09/22 22:24:41;;;;;;;6.45;4.78;;;;;;;17.84;100.00;99605.59;10372938;28;20067;-67
2022/09/22 22:29:41;;;;;;;7.88;5.10;;;;;;;17.78;100.00;99631.53;10393738;28;20077;-67
2022/09/22 22:34:42;;;;;;;7.13;5.13;;;;;;;17.40;100.00;99572.84;10380028;28;20065;-67
2022/09/22 22:39:43;;;;;;;6.57;5.07;;;;;;;17.75;100.00;99643.53;10379673;28;20072;-67
2022/09/22 22:44:44;;;;;;;8.07;5.93;;;;;;;17.64;100.00;99616.66;10380004;28;20029;-67
2022/09/22 22:49:45;;;;;;;7.07;5.45;;;;;;;17.62;100.00;99640.22;10380828;28;20052;-67
2022/09/22 22:54:45;;;;;;;6.82;5.72;;;;;;;17.33;100.00;99603.28;10379149;28;20127;-67
2022/09/22 22:59:47;;;;;;;7.53;5.85;;;;;;;17.43;100.00;99631.44;10379481;28;20089;-67
2022/09/22 23:04:48;;;;;;;6.40;5.38;;;;;;;17.40;100.00;99623.84;10379542;28;20050;-67
2022/09/22 23:10:04;;;;;;;7.32;5.90;;;;;;;17.43;100.00;99636.81;10379190;28;20136;-67
2022/09/22 23:15:08;;;;;;;6.50;5.88;;;;;;;17.28;100.00;99626.50;10379919;28;20037;-67
2022/09/22 23:20:09;;;;;;;7.38;5.97;;;;;;;17.34;100.00;99626.41;10378934;28;20050;-67
2022/09/22 23:25:13;;;;;;;11.40;6.63;;;;;;;17.20;100.00;99614.25;10377957;28;20038;-67
2022/09/22 23:30:15;;;;;;;7.43;6.47;;;;;;;17.24;100.00;99620.78;10377908;28;20433;-67
2022/09/22 23:35:16;;;;;;;7.20;6.15;;;;;;;17.23;100.00;99600.38;10377834;28;20537;-67
2022/09/22 23:40:17;;;;;;;9.60;6.88;;;;;;;17.20;100.00;99606.19;10378330;28;20052;-67
2022/09/22 23:45:19;;;;;;;7.65;6.70;;;;;;;17.14;100.00;99606.25;10377943;28;20128;-67
2022/09/22 23:50:22;;;;;;;11.32;7.45;;;;;;;17.13;100.00;99597.41;10377630;28;20504;-67
2022/09/22 23:55:22;;;;;;;10.43;7.57;;;;;;;16.76;100.00;99543.06;10377948;28;20046;-67
